sensor_id;sensor_type;location;lat;lon;timestamp;P1;durP1;ratioP1;P2;durP2;ratioP2
7969;SDS011;4030;52.362;9.206;2023-06-26T00:00:19;4.10;;;3.78;;
7969;SDS011;4030;52.362;9.206;2023-06-26T00:02:45;4.65;;;3.88;;
7969;SDS011;4030;52.362;9.206;2023-06-26T00:05:11;3.83;;;3.53;;
7969;SDS011;4030;52.362;9.206;2023-06-26T00:07:38;3.80;;;3.50;;
7969;SDS011;4030;52.362;9.206;2023-06-26T00:10:04;3.70;;;3.40;;
7969;SDS011;4030;52.362;9.206;2023-06-26T00:12:31;4.30;;;3.53;;
7969;SDS011;4030;52.362;9.206;2023-06-26T00:14:57;4.03;;;3.70;;
7969;SDS011;4030;52.362;9.206;2023-06-26T00:17:23;3.85;;;3.55;;
7969;SDS011;4030;52.362;9.206;2023-06-26T00:19:49;4.18;;;3.83;;
7969;SDS011;4030;52.362;9.206;2023-06-26T00:22:15;4.00;;;3.70;;
7969;SDS011;4030;52.362;9.206;2023-06-26T00:24:41;4.18;;;3.85;;
7969;SDS011;4030;52.362;9.206;2023-06-26T00:27:07;3.92;;;3.53;;
7969;SDS011;4030;52.362;9.206;2023-06-26T00:29:33;3.85;;;3.55;;
7969;SDS011;4030;52.362;9.206;2023-06-26T00:31:58;3.63;;;3.33;;
7969;SDS011;4030;52.362;9.206;2023-06-26T00:34:24;3.80;;;3.50;;
7969;SDS011;4030;52.362;9.206;2023-06-26T00:36:50;3.80;;;3.50;;
7969;SDS011;4030;52.362;9.206;2023-06-26T00:39:15;4.15;;;3.60;;
7969;SDS011;4030;52.362;9.206;2023-06-26T00:41:41;3.50;;;3.20;;
7969;SDS011;4030;52.362;9.206;2023-06-26T00:44:07;5.38;;;3.70;;
7969;SDS011;4030;52.362;9.206;2023-06-26T00:46:32;3.67;;;3.38;;
7969;SDS011;4030;52.362;9.206;2023-06-26T00:49:00;4.07;;;3.78;;
7969;SDS011;4030;52.362;9.206;2023-06-26T00:51:29;4.03;;;3.50;;
7969;SDS011;4030;52.362;9.206;2023-06-26T00:53:56;3.60;;;3.30;;
7969;SDS011;4030;52.362;9.206;2023-06-26T00:56:22;4.22;;;3.80;;
7969;SDS011;4030;52.362;9.206;2023-06-26T00:58:48;3.75;;;3.45;;
7969;SDS011;4030;52.362;9.206;2023-06-26T01:01:14;4.00;;;3.65;;
7969;SDS011;4030;52.362;9.206;2023-06-26T01:03:45;4.25;;;3.88;;
7969;SDS011;4030;52.362;9.206;2023-06-26T01:06:17;3.85;;;3.55;;
7969;SDS011;4030;52.362;9.206;2023-06-26T01:08:45;4.05;;;3.60;;
7969;SDS011;4030;52.362;9.206;2023-06-26T01:11:11;4.30;;;3.85;;
7969;SDS011;4030;52.362;9.206;2023-06-26T01:13:38;4.90;;;3.70;;
7969;SDS011;4030;52.362;9.206;2023-06-26T01:16:15;3.90;;;3.60;;
7969;SDS011;4030;52.362;9.206;2023-06-26T01:18:44;3.72;;;3.42;;
7969;SDS011;4030;52.362;9.206;2023-06-26T01:21:11;4.18;;;3.70;;
7969;SDS011;4030;52.362;9.206;2023-06-26T01:23:49;3.65;;;3.25;;
7969;SDS011;4030;52.362;9.206;2023-06-26T01:26:30;3.78;;;3.47;;
7969;SDS011;4030;52.362;9.206;2023-06-26T01:29:00;4.30;;;3.78;;
7969;SDS011;4030;52.362;9.206;2023-06-26T01:31:28;4.07;;;3.58;;
7969;SDS011;4030;52.362;9.206;2023-06-26T01:33:55;3.85;;;3.55;;
7969;SDS011;4030;52.362;9.206;2023-06-26T01:36:25;3.97;;;3.35;;
7969;SDS011;4030;52.362;9.206;2023-06-26T01:38:52;4.00;;;3.70;;
7969;SDS011;4030;52.362;9.206;2023-06-26T01:41:18;5.05;;;3.60;;
7969;SDS011;4030;52.362;9.206;2023-06-26T01:46:39;4.68;;;3.60;;
7969;SDS011;4030;52.362;9.206;2023-06-26T01:52:27;4.57;;;3.22;;
7969;SDS011;4030;52.362;9.206;2023-06-26T01:58:09;3.58;;;3.28;;
7969;SDS011;4030;52.362;9.206;2023-06-26T02:00:35;5.07;;;3.70;;
7969;SDS011;4030;52.362;9.206;2023-06-26T02:03:02;5.05;;;3.70;;
7969;SDS011;4030;52.362;9.206;2023-06-26T02:05:29;4.00;;;3.17;;
7969;SDS011;4030;52.362;9.206;2023-06-26T02:07:55;3.90;;;3.60;;
7969;SDS011;4030;52.362;9.206;2023-06-26T02:10:21;3.97;;;3.53;;
7969;SDS011;4030;52.362;9.206;2023-06-26T02:12:47;3.60;;;3.25;;
7969;SDS011;4030;52.362;9.206;2023-06-26T02:15:13;3.97;;;3.60;;
7969;SDS011;4030;52.362;9.206;2023-06-26T02:17:38;4.10;;;3.60;;
7969;SDS011;4030;52.362;9.206;2023-06-26T02:20:04;4.45;;;4.03;;
7969;SDS011;4030;52.362;9.206;2023-06-26T02:22:31;4.20;;;3.80;;
7969;SDS011;4030;52.362;9.206;2023-06-26T02:24:56;4.10;;;3.70;;
7969;SDS011;4030;52.362;9.206;2023-06-26T02:27:22;4.88;;;3.75;;
7969;SDS011;4030;52.362;9.206;2023-06-26T02:29:48;3.80;;;3.40;;
7969;SDS011;4030;52.362;9.206;2023-06-26T02:32:13;3.67;;;3.15;;
7969;SDS011;4030;52.362;9.206;2023-06-26T02:34:39;3.97;;;3.50;;
7969;SDS011;4030;52.362;9.206;2023-06-26T02:37:05;4.30;;;3.90;;
7969;SDS011;4030;52.362;9.206;2023-06-26T02:39:32;3.60;;;3.30;;
7969;SDS011;4030;52.362;9.206;2023-06-26T02:41:59;3.88;;;3.58;;
7969;SDS011;4030;52.362;9.206;2023-06-26T02:44:25;3.90;;;3.60;;
7969;SDS011;4030;52.362;9.206;2023-06-26T02:46:50;3.97;;;3.60;;
7969;SDS011;4030;52.362;9.206;2023-06-26T02:49:16;4.35;;;3.58;;
7969;SDS011;4030;52.362;9.206;2023-06-26T02:51:42;3.85;;;3.50;;
7969;SDS011;4030;52.362;9.206;2023-06-26T02:54:07;4.35;;;3.55;;
7969;SDS011;4030;52.362;9.206;2023-06-26T02:56:33;4.15;;;3.75;;
7969;SDS011;4030;52.362;9.206;2023-06-26T02:58:59;4.35;;;3.60;;
7969;SDS011;4030;52.362;9.206;2023-06-26T03:01:24;4.63;;;3.63;;
7969;SDS011;4030;52.362;9.206;2023-06-26T03:03:50;4.18;;;3.58;;
7969;SDS011;4030;52.362;9.206;2023-06-26T03:06:16;4.25;;;3.50;;
7969;SDS011;4030;52.362;9.206;2023-06-26T03:08:42;4.60;;;3.47;;
7969;SDS011;4030;52.362;9.206;2023-06-26T03:11:08;4.90;;;3.90;;
7969;SDS011;4030;52.362;9.206;2023-06-26T03:13:34;3.80;;;3.50;;
7969;SDS011;4030;52.362;9.206;2023-06-26T03:16:01;4.90;;;3.70;;
7969;SDS011;4030;52.362;9.206;2023-06-26T03:18:27;5.35;;;3.58;;
7969;SDS011;4030;52.362;9.206;2023-06-26T03:20:54;3.80;;;3.40;;
7969;SDS011;4030;52.362;9.206;2023-06-26T03:23:21;3.80;;;3.50;;
7969;SDS011;4030;52.362;9.206;2023-06-26T03:25:48;3.90;;;3.60;;
7969;SDS011;4030;52.362;9.206;2023-06-26T03:28:14;3.90;;;3.47;;
7969;SDS011;4030;52.362;9.206;2023-06-26T03:30:40;3.80;;;3.50;;
7969;SDS011;4030;52.362;9.206;2023-06-26T03:33:05;5.25;;;3.63;;
7969;SDS011;4030;52.362;9.206;2023-06-26T03:35:31;3.67;;;3.38;;
7969;SDS011;4030;52.362;9.206;2023-06-26T03:37:57;3.63;;;3.22;;
7969;SDS011;4030;52.362;9.206;2023-06-26T03:40:23;4.43;;;3.58;;
7969;SDS011;4030;52.362;9.206;2023-06-26T03:42:49;3.90;;;3.50;;
7969;SDS011;4030;52.362;9.206;2023-06-26T03:45:14;3.85;;;3.53;;
7969;SDS011;4030;52.362;9.206;2023-06-26T03:47:40;4.00;;;3.60;;
7969;SDS011;4030;52.362;9.206;2023-06-26T03:50:06;4.18;;;3.78;;
7969;SDS011;4030;52.362;9.206;2023-06-26T03:52:32;4.20;;;3.80;;
7969;SDS011;4030;52.362;9.206;2023-06-26T03:54:58;3.70;;;3.40;;
7969;SDS011;4030;52.362;9.206;2023-06-26T03:57:23;3.72;;;3.42;;
7969;SDS011;4030;52.362;9.206;2023-06-26T03:59:49;4.10;;;3.80;;
7969;SDS011;4030;52.362;9.206;2023-06-26T04:02:15;3.95;;;3.60;;
7969;SDS011;4030;52.362;9.206;2023-06-26T04:04:41;3.78;;;3.47;;
7969;SDS011;4030;52.362;9.206;2023-06-26T04:07:07;3.45;;;3.15;;
7969;SDS011;4030;52.362;9.206;2023-06-26T04:09:32;4.00;;;3.60;;
7969;SDS011;4030;52.362;9.206;2023-06-26T04:11:58;4.10;;;3.70;;
7969;SDS011;4030;52.362;9.206;2023-06-26T04:14:24;3.97;;;3.58;;
7969;SDS011;4030;52.362;9.206;2023-06-26T04:16:49;4.57;;;3.65;;
7969;SDS011;4030;52.362;9.206;2023-06-26T04:19:15;3.92;;;3.63;;
7969;SDS011;4030;52.362;9.206;2023-06-26T04:21:41;4.10;;;3.70;;
7969;SDS011;4030;52.362;9.206;2023-06-26T04:24:06;4.78;;;3.55;;
7969;SDS011;4030;52.362;9.206;2023-06-26T04:26:32;3.80;;;3.50;;
7969;SDS011;4030;52.362;9.206;2023-06-26T04:28:58;3.80;;;3.50;;
7969;SDS011;4030;52.362;9.206;2023-06-26T04:31:24;3.72;;;3.40;;
7969;SDS011;4030;52.362;9.206;2023-06-26T04:33:50;4.80;;;4.00;;
7969;SDS011;4030;52.362;9.206;2023-06-26T04:36:18;3.55;;;3.25;;
7969;SDS011;4030;52.362;9.206;2023-06-26T04:38:43;4.05;;;3.65;;
7969;SDS011;4030;52.362;9.206;2023-06-26T04:41:09;4.65;;;3.88;;
7969;SDS011;4030;52.362;9.206;2023-06-26T04:43:35;3.60;;;3.30;;
7969;SDS011;4030;52.362;9.206;2023-06-26T04:46:02;4.15;;;3.75;;
7969;SDS011;4030;52.362;9.206;2023-06-26T04:48:28;3.97;;;3.50;;
7969;SDS011;4030;52.362;9.206;2023-06-26T04:50:55;3.85;;;3.42;;
7969;SDS011;4030;52.362;9.206;2023-06-26T04:53:21;3.85;;;3.55;;
7969;SDS011;4030;52.362;9.206;2023-06-26T04:55:48;4.07;;;3.67;;
7969;SDS011;4030;52.362;9.206;2023-06-26T04:58:15;3.92;;;3.53;;
7969;SDS011;4030;52.362;9.206;2023-06-26T05:00:41;4.15;;;3.47;;
7969;SDS011;4030;52.362;9.206;2023-06-26T05:03:11;3.70;;;3.40;;
7969;SDS011;4030;52.362;9.206;2023-06-26T05:05:38;3.72;;;3.38;;
7969;SDS011;4030;52.362;9.206;2023-06-26T05:08:14;4.13;;;3.70;;
7969;SDS011;4030;52.362;9.206;2023-06-26T05:10:41;5.20;;;3.45;;
7969;SDS011;4030;52.362;9.206;2023-06-26T05:13:07;3.70;;;3.40;;
7969;SDS011;4030;52.362;9.206;2023-06-26T05:15:33;3.72;;;3.40;;
7969;SDS011;4030;52.362;9.206;2023-06-26T05:17:58;4.15;;;3.85;;
7969;SDS011;4030;52.362;9.206;2023-06-26T05:20:24;3.85;;;3.42;;
7969;SDS011;4030;52.362;9.206;2023-06-26T05:22:50;3.95;;;3.50;;
7969;SDS011;4030;52.362;9.206;2023-06-26T05:25:17;3.78;;;3.45;;
7969;SDS011;4030;52.362;9.206;2023-06-26T05:27:46;4.03;;;3.67;;
7969;SDS011;4030;52.362;9.206;2023-06-26T05:30:13;3.80;;;3.50;;
7969;SDS011;4030;52.362;9.206;2023-06-26T05:32:39;3.63;;;3.33;;
7969;SDS011;4030;52.362;9.206;2023-06-26T05:35:05;4.15;;;3.80;;
7969;SDS011;4030;52.362;9.206;2023-06-26T05:37:32;4.05;;;3.65;;
7969;SDS011;4030;52.362;9.206;2023-06-26T05:39:59;3.72;;;3.42;;
7969;SDS011;4030;52.362;9.206;2023-06-26T05:42:29;3.75;;;3.35;;
7969;SDS011;4030;52.362;9.206;2023-06-26T05:44:55;4.20;;;3.80;;
7969;SDS011;4030;52.362;9.206;2023-06-26T05:47:21;4.03;;;3.63;;
7969;SDS011;4030;52.362;9.206;2023-06-26T05:49:47;3.80;;;3.50;;
7969;SDS011;4030;52.362;9.206;2023-06-26T05:52:13;3.80;;;3.50;;
7969;SDS011;4030;52.362;9.206;2023-06-26T05:54:39;4.15;;;3.75;;
7969;SDS011;4030;52.362;9.206;2023-06-26T05:57:05;4.63;;;3.80;;
7969;SDS011;4030;52.362;9.206;2023-06-26T05:59:31;4.00;;;3.70;;
7969;SDS011;4030;52.362;9.206;2023-06-26T06:01:57;4.15;;;3.85;;
7969;SDS011;4030;52.362;9.206;2023-06-26T06:04:23;4.72;;;3.90;;
7969;SDS011;4030;52.362;9.206;2023-06-26T06:06:49;4.53;;;3.55;;
7969;SDS011;4030;52.362;9.206;2023-06-26T06:09:14;3.83;;;3.42;;
7969;SDS011;4030;52.362;9.206;2023-06-26T06:11:40;4.40;;;4.00;;
7969;SDS011;4030;52.362;9.206;2023-06-26T06:14:06;4.78;;;3.88;;
7969;SDS011;4030;52.362;9.206;2023-06-26T06:16:32;5.90;;;4.00;;
7969;SDS011;4030;52.362;9.206;2023-06-26T06:18:57;4.93;;;4.20;;
7969;SDS011;4030;52.362;9.206;2023-06-26T06:21:23;5.95;;;4.53;;
7969;SDS011;4030;52.362;9.206;2023-06-26T06:23:49;4.85;;;4.30;;
7969;SDS011;4030;52.362;9.206;2023-06-26T06:26:14;4.85;;;4.43;;
7969;SDS011;4030;52.362;9.206;2023-06-26T06:28:40;4.63;;;4.22;;
7969;SDS011;4030;52.362;9.206;2023-06-26T06:31:05;4.47;;;4.07;;
7969;SDS011;4030;52.362;9.206;2023-06-26T06:33:31;4.82;;;4.38;;
7969;SDS011;4030;52.362;9.206;2023-06-26T06:35:58;4.80;;;4.22;;
7969;SDS011;4030;52.362;9.206;2023-06-26T06:38:23;4.75;;;4.25;;
7969;SDS011;4030;52.362;9.206;2023-06-26T06:40:49;6.35;;;4.18;;
7969;SDS011;4030;52.362;9.206;2023-06-26T06:43:16;4.68;;;4.28;;
7969;SDS011;4030;52.362;9.206;2023-06-26T06:45:41;5.00;;;4.50;;
7969;SDS011;4030;52.362;9.206;2023-06-26T06:48:07;5.65;;;4.30;;
7969;SDS011;4030;52.362;9.206;2023-06-26T06:50:33;5.13;;;4.40;;
7969;SDS011;4030;52.362;9.206;2023-06-26T06:52:58;6.25;;;4.40;;
7969;SDS011;4030;52.362;9.206;2023-06-26T06:55:24;5.10;;;4.60;;
7969;SDS011;4030;52.362;9.206;2023-06-26T06:57:50;4.60;;;4.20;;
7969;SDS011;4030;52.362;9.206;2023-06-26T07:00:16;5.00;;;4.18;;
7969;SDS011;4030;52.362;9.206;2023-06-26T07:02:43;4.72;;;4.32;;
7969;SDS011;4030;52.362;9.206;2023-06-26T07:05:09;4.80;;;4.25;;
7969;SDS011;4030;52.362;9.206;2023-06-26T07:07:35;5.15;;;4.53;;
7969;SDS011;4030;52.362;9.206;2023-06-26T07:10:03;4.68;;;4.28;;
7969;SDS011;4030;52.362;9.206;2023-06-26T07:12:35;5.10;;;4.60;;
7969;SDS011;4030;52.362;9.206;2023-06-26T07:15:01;5.07;;;4.47;;
7969;SDS011;4030;52.362;9.206;2023-06-26T07:17:29;4.90;;;4.40;;
7969;SDS011;4030;52.362;9.206;2023-06-26T07:19:56;5.00;;;4.50;;
7969;SDS011;4030;52.362;9.206;2023-06-26T07:22:22;5.60;;;4.53;;
7969;SDS011;4030;52.362;9.206;2023-06-26T07:24:48;4.90;;;4.40;;
7969;SDS011;4030;52.362;9.206;2023-06-26T07:27:14;5.05;;;4.65;;
7969;SDS011;4030;52.362;9.206;2023-06-26T07:29:41;5.40;;;4.53;;
7969;SDS011;4030;52.362;9.206;2023-06-26T07:32:07;6.90;;;4.28;;
7969;SDS011;4030;52.362;9.206;2023-06-26T07:34:33;4.45;;;4.05;;
7969;SDS011;4030;52.362;9.206;2023-06-26T07:36:59;4.75;;;4.32;;
7969;SDS011;4030;52.362;9.206;2023-06-26T07:39:25;6.50;;;4.38;;
7969;SDS011;4030;52.362;9.206;2023-06-26T07:41:50;5.28;;;4.47;;
7969;SDS011;4030;52.362;9.206;2023-06-26T07:44:16;4.88;;;4.45;;
7969;SDS011;4030;52.362;9.206;2023-06-26T07:46:42;5.00;;;4.50;;
7969;SDS011;4030;52.362;9.206;2023-06-26T07:49:07;4.90;;;4.43;;
7969;SDS011;4030;52.362;9.206;2023-06-26T07:51:33;5.32;;;4.80;;
7969;SDS011;4030;52.362;9.206;2023-06-26T07:53:59;5.50;;;5.00;;
7969;SDS011;4030;52.362;9.206;2023-06-26T07:56:24;6.93;;;4.85;;
7969;SDS011;4030;52.362;9.206;2023-06-26T07:58:50;5.88;;;4.72;;
7969;SDS011;4030;52.362;9.206;2023-06-26T08:01:16;5.40;;;4.75;;
7969;SDS011;4030;52.362;9.206;2023-06-26T08:03:42;6.15;;;4.97;;
7969;SDS011;4030;52.362;9.206;2023-06-26T08:06:07;6.13;;;4.95;;
7969;SDS011;4030;52.362;9.206;2023-06-26T08:08:33;6.72;;;4.95;;
7969;SDS011;4030;52.362;9.206;2023-06-26T08:10:59;6.70;;;5.10;;
7969;SDS011;4030;52.362;9.206;2023-06-26T08:13:24;5.70;;;5.20;;
7969;SDS011;4030;52.362;9.206;2023-06-26T08:15:50;7.07;;;4.97;;
7969;SDS011;4030;52.362;9.206;2023-06-26T08:18:17;6.07;;;5.50;;
7969;SDS011;4030;52.362;9.206;2023-06-26T08:20:43;6.35;;;5.75;;
7969;SDS011;4030;52.362;9.206;2023-06-26T08:23:08;8.02;;;5.82;;
7969;SDS011;4030;52.362;9.206;2023-06-26T08:25:34;5.88;;;5.35;;
7969;SDS011;4030;52.362;9.206;2023-06-26T08:28:00;7.28;;;5.47;;
7969;SDS011;4030;52.362;9.206;2023-06-26T08:30:26;10.43;;;5.70;;
7969;SDS011;4030;52.362;9.206;2023-06-26T08:32:53;6.03;;;5.43;;
7969;SDS011;4030;52.362;9.206;2023-06-26T08:35:20;5.38;;;4.93;;
7969;SDS011;4030;52.362;9.206;2023-06-26T08:37:46;5.53;;;5.00;;
7969;SDS011;4030;52.362;9.206;2023-06-26T08:40:12;7.20;;;5.60;;
7969;SDS011;4030;52.362;9.206;2023-06-26T08:42:42;6.28;;;5.78;;
7969;SDS011;4030;52.362;9.206;2023-06-26T08:45:08;7.28;;;5.40;;
7969;SDS011;4030;52.362;9.206;2023-06-26T08:47:34;6.25;;;5.55;;
7969;SDS011;4030;52.362;9.206;2023-06-26T08:50:12;6.70;;;5.85;;
7969;SDS011;4030;52.362;9.206;2023-06-26T08:52:41;5.78;;;5.28;;
7969;SDS011;4030;52.362;9.206;2023-06-26T08:55:17;6.18;;;5.40;;
7969;SDS011;4030;52.362;9.206;2023-06-26T08:57:46;6.43;;;5.90;;
7969;SDS011;4030;52.362;9.206;2023-06-26T09:00:13;6.00;;;5.40;;
7969;SDS011;4030;52.362;9.206;2023-06-26T09:02:39;6.63;;;5.28;;
7969;SDS011;4030;52.362;9.206;2023-06-26T09:05:06;5.60;;;5.00;;
7969;SDS011;4030;52.362;9.206;2023-06-26T09:07:32;5.95;;;5.35;;
7969;SDS011;4030;52.362;9.206;2023-06-26T09:09:58;7.85;;;5.00;;
7969;SDS011;4030;52.362;9.206;2023-06-26T09:12:23;6.25;;;5.55;;
7969;SDS011;4030;52.362;9.206;2023-06-26T09:14:53;5.68;;;5.18;;
7969;SDS011;4030;52.362;9.206;2023-06-26T09:17:24;6.82;;;5.13;;
7969;SDS011;4030;52.362;9.206;2023-06-26T09:19:51;8.90;;;5.88;;
7969;SDS011;4030;52.362;9.206;2023-06-26T09:22:18;7.30;;;5.05;;
7969;SDS011;4030;52.362;9.206;2023-06-26T09:24:44;7.03;;;5.57;;
7969;SDS011;4030;52.362;9.206;2023-06-26T09:27:10;6.75;;;5.63;;
7969;SDS011;4030;52.362;9.206;2023-06-26T09:29:36;6.03;;;5.40;;
7969;SDS011;4030;52.362;9.206;2023-06-26T09:32:02;7.28;;;5.32;;
7969;SDS011;4030;52.362;9.206;2023-06-26T09:34:32;7.88;;;5.50;;
7969;SDS011;4030;52.362;9.206;2023-06-26T09:36:58;6.53;;;5.43;;
7969;SDS011;4030;52.362;9.206;2023-06-26T09:39:29;7.72;;;5.88;;
7969;SDS011;4030;52.362;9.206;2023-06-26T09:41:56;8.10;;;5.88;;
7969;SDS011;4030;52.362;9.206;2023-06-26T09:44:22;6.07;;;5.15;;
7969;SDS011;4030;52.362;9.206;2023-06-26T09:46:48;5.78;;;5.05;;
7969;SDS011;4030;52.362;9.206;2023-06-26T09:49:14;7.38;;;5.20;;
7969;SDS011;4030;52.362;9.206;2023-06-26T09:51:41;5.60;;;5.00;;
7969;SDS011;4030;52.362;9.206;2023-06-26T09:54:08;6.47;;;4.75;;
7969;SDS011;4030;52.362;9.206;2023-06-26T09:56:34;6.43;;;4.22;;
7969;SDS011;4030;52.362;9.206;2023-06-26T09:59:01;5.22;;;4.60;;
7969;SDS011;4030;52.362;9.206;2023-06-26T10:01:29;5.32;;;4.40;;
7969;SDS011;4030;52.362;9.206;2023-06-26T10:03:56;6.10;;;4.43;;
7969;SDS011;4030;52.362;9.206;2023-06-26T10:09:02;6.50;;;4.40;;
7969;SDS011;4030;52.362;9.206;2023-06-26T10:11:33;4.85;;;4.22;;
7969;SDS011;4030;52.362;9.206;2023-06-26T10:14:16;7.15;;;4.38;;
7969;SDS011;4030;52.362;9.206;2023-06-26T10:16:44;6.07;;;4.72;;
7969;SDS011;4030;52.362;9.206;2023-06-26T10:19:11;5.80;;;4.43;;
7969;SDS011;4030;52.362;9.206;2023-06-26T10:21:39;6.93;;;4.72;;
7969;SDS011;4030;52.362;9.206;2023-06-26T10:24:06;6.25;;;4.65;;
7969;SDS011;4030;52.362;9.206;2023-06-26T10:26:35;5.72;;;4.50;;
7969;SDS011;4030;52.362;9.206;2023-06-26T10:29:07;7.25;;;4.80;;
7969;SDS011;4030;52.362;9.206;2023-06-26T10:31:33;5.13;;;4.25;;
7969;SDS011;4030;52.362;9.206;2023-06-26T10:34:01;5.03;;;4.30;;
7969;SDS011;4030;52.362;9.206;2023-06-26T10:36:29;5.55;;;4.47;;
7969;SDS011;4030;52.362;9.206;2023-06-26T10:38:57;5.47;;;4.22;;
7969;SDS011;4030;52.362;9.206;2023-06-26T10:41:30;6.60;;;4.63;;
7969;SDS011;4030;52.362;9.206;2023-06-26T10:44:10;5.15;;;4.38;;
7969;SDS011;4030;52.362;9.206;2023-06-26T10:46:49;6.60;;;4.68;;
7969;SDS011;4030;52.362;9.206;2023-06-26T10:49:18;6.15;;;4.75;;
7969;SDS011;4030;52.362;9.206;2023-06-26T10:51:50;5.82;;;5.10;;
7969;SDS011;4030;52.362;9.206;2023-06-26T10:54:19;7.43;;;5.43;;
7969;SDS011;4030;52.362;9.206;2023-06-26T10:59:19;6.05;;;4.95;;
7969;SDS011;4030;52.362;9.206;2023-06-26T11:01:47;5.13;;;4.43;;
7969;SDS011;4030;52.362;9.206;2023-06-26T11:04:21;6.78;;;5.40;;
7969;SDS011;4030;52.362;9.206;2023-06-26T11:07:18;6.03;;;5.30;;
7969;SDS011;4030;52.362;9.206;2023-06-26T11:12:41;5.90;;;5.30;;
7969;SDS011;4030;52.362;9.206;2023-06-26T11:15:09;6.03;;;5.28;;
7969;SDS011;4030;52.362;9.206;2023-06-26T11:17:40;6.65;;;5.32;;
7969;SDS011;4030;52.362;9.206;2023-06-26T11:20:08;6.53;;;4.88;;
7969;SDS011;4030;52.362;9.206;2023-06-26T11:22:36;6.00;;;5.40;;
7969;SDS011;4030;52.362;9.206;2023-06-26T11:25:05;7.03;;;5.07;;
7969;SDS011;4030;52.362;9.206;2023-06-26T11:30:07;4.75;;;4.25;;
7969;SDS011;4030;52.362;9.206;2023-06-26T11:32:36;6.35;;;4.10;;
7969;SDS011;4030;52.362;9.206;2023-06-26T11:35:05;4.40;;;3.70;;
7969;SDS011;4030;52.362;9.206;2023-06-26T11:37:31;4.28;;;3.47;;
7969;SDS011;4030;52.362;9.206;2023-06-26T11:39:57;5.32;;;3.70;;
7969;SDS011;4030;52.362;9.206;2023-06-26T11:42:23;4.57;;;3.22;;
7969;SDS011;4030;52.362;9.206;2023-06-26T11:44:50;5.13;;;2.92;;
7969;SDS011;4030;52.362;9.206;2023-06-26T11:47:17;5.25;;;2.92;;
7969;SDS011;4030;52.362;9.206;2023-06-26T11:49:45;3.72;;;2.88;;
7969;SDS011;4030;52.362;9.206;2023-06-26T11:52:14;3.88;;;2.80;;
7969;SDS011;4030;52.362;9.206;2023-06-26T11:54:41;3.40;;;2.75;;
7969;SDS011;4030;52.362;9.206;2023-06-26T11:57:08;4.05;;;2.70;;
7969;SDS011;4030;52.362;9.206;2023-06-26T11:59:39;3.28;;;2.63;;
7969;SDS011;4030;52.362;9.206;2023-06-26T12:02:06;2.92;;;2.33;;
7969;SDS011;4030;52.362;9.206;2023-06-26T12:04:40;2.80;;;2.20;;
7969;SDS011;4030;52.362;9.206;2023-06-26T12:07:08;3.42;;;2.38;;
7969;SDS011;4030;52.362;9.206;2023-06-26T12:09:45;2.80;;;2.20;;
7969;SDS011;4030;52.362;9.206;2023-06-26T12:12:13;3.13;;;2.10;;
7969;SDS011;4030;52.362;9.206;2023-06-26T12:14:41;2.88;;;2.15;;
7969;SDS011;4030;52.362;9.206;2023-06-26T12:17:09;3.33;;;1.83;;
7969;SDS011;4030;52.362;9.206;2023-06-26T12:19:36;5.15;;;2.17;;
7969;SDS011;4030;52.362;9.206;2023-06-26T12:22:07;2.38;;;1.77;;
7969;SDS011;4030;52.362;9.206;2023-06-26T12:24:35;2.45;;;1.83;;
7969;SDS011;4030;52.362;9.206;2023-06-26T12:27:07;3.17;;;2.00;;
7969;SDS011;4030;52.362;9.206;2023-06-26T12:29:34;2.38;;;1.83;;
7969;SDS011;4030;52.362;9.206;2023-06-26T12:32:01;3.50;;;1.90;;
7969;SDS011;4030;52.362;9.206;2023-06-26T12:34:28;3.08;;;1.98;;
7969;SDS011;4030;52.362;9.206;2023-06-26T12:37:01;5.07;;;2.05;;
7969;SDS011;4030;52.362;9.206;2023-06-26T12:39:45;4.97;;;1.70;;
7969;SDS011;4030;52.362;9.206;2023-06-26T12:42:24;3.17;;;1.80;;
7969;SDS011;4030;52.362;9.206;2023-06-26T12:44:54;5.03;;;2.17;;
7969;SDS011;4030;52.362;9.206;2023-06-26T12:47:25;3.75;;;1.73;;
7969;SDS011;4030;52.362;9.206;2023-06-26T12:49:53;5.15;;;1.75;;
7969;SDS011;4030;52.362;9.206;2023-06-26T12:52:19;3.00;;;1.90;;
7969;SDS011;4030;52.362;9.206;2023-06-26T12:54:46;2.78;;;1.63;;
7969;SDS011;4030;52.362;9.206;2023-06-26T12:57:16;4.13;;;1.80;;
7969;SDS011;4030;52.362;9.206;2023-06-26T12:59:42;2.67;;;1.80;;
7969;SDS011;4030;52.362;9.206;2023-06-26T13:02:08;5.63;;;1.90;;
7969;SDS011;4030;52.362;9.206;2023-06-26T13:04:36;4.43;;;1.70;;
7969;SDS011;4030;52.362;9.206;2023-06-26T13:07:04;3.28;;;1.70;;
7969;SDS011;4030;52.362;9.206;2023-06-26T13:09:34;3.47;;;1.65;;
7969;SDS011;4030;52.362;9.206;2023-06-26T13:12:01;2.85;;;1.80;;
7969;SDS011;4030;52.362;9.206;2023-06-26T13:14:28;2.72;;;1.70;;
7969;SDS011;4030;52.362;9.206;2023-06-26T13:16:55;2.67;;;1.70;;
7969;SDS011;4030;52.362;9.206;2023-06-26T13:19:20;2.67;;;1.67;;
7969;SDS011;4030;52.362;9.206;2023-06-26T13:21:46;2.97;;;1.65;;
7969;SDS011;4030;52.362;9.206;2023-06-26T13:24:12;3.47;;;1.88;;
7969;SDS011;4030;52.362;9.206;2023-06-26T13:26:38;3.15;;;1.70;;
7969;SDS011;4030;52.362;9.206;2023-06-26T13:29:04;2.35;;;1.58;;
7969;SDS011;4030;52.362;9.206;2023-06-26T13:31:30;2.72;;;1.60;;
7969;SDS011;4030;52.362;9.206;2023-06-26T13:33:59;8.93;;;2.10;;
7969;SDS011;4030;52.362;9.206;2023-06-26T13:36:26;5.32;;;1.70;;
7969;SDS011;4030;52.362;9.206;2023-06-26T13:38:52;5.05;;;1.75;;
7969;SDS011;4030;52.362;9.206;2023-06-26T13:41:23;5.38;;;1.70;;
7969;SDS011;4030;52.362;9.206;2023-06-26T13:43:50;2.58;;;1.42;;
7969;SDS011;4030;52.362;9.206;2023-06-26T13:46:16;3.80;;;1.60;;
7969;SDS011;4030;52.362;9.206;2023-06-26T13:48:43;3.35;;;1.70;;
7969;SDS011;4030;52.362;9.206;2023-06-26T13:51:09;5.65;;;1.77;;
7969;SDS011;4030;52.362;9.206;2023-06-26T13:53:35;3.85;;;1.58;;
7969;SDS011;4030;52.362;9.206;2023-06-26T13:56:01;4.13;;;1.70;;
7969;SDS011;4030;52.362;9.206;2023-06-26T13:58:26;3.55;;;1.75;;
7969;SDS011;4030;52.362;9.206;2023-06-26T14:00:54;4.22;;;1.67;;
7969;SDS011;4030;52.362;9.206;2023-06-26T14:03:20;3.92;;;1.52;;
7969;SDS011;4030;52.362;9.206;2023-06-26T14:05:46;2.30;;;1.60;;
7969;SDS011;4030;52.362;9.206;2023-06-26T14:08:12;2.70;;;1.35;;
7969;SDS011;4030;52.362;9.206;2023-06-26T14:10:38;7.18;;;1.85;;
7969;SDS011;4030;52.362;9.206;2023-06-26T14:13:04;14.55;;;2.38;;
7969;SDS011;4030;52.362;9.206;2023-06-26T14:15:30;4.13;;;1.63;;
7969;SDS011;4030;52.362;9.206;2023-06-26T14:17:55;3.08;;;1.67;;
7969;SDS011;4030;52.362;9.206;2023-06-26T14:20:21;2.65;;;1.60;;
7969;SDS011;4030;52.362;9.206;2023-06-26T14:22:48;3.55;;;1.50;;
7969;SDS011;4030;52.362;9.206;2023-06-26T14:25:14;2.40;;;1.73;;
7969;SDS011;4030;52.362;9.206;2023-06-26T14:27:41;1.80;;;1.45;;
7969;SDS011;4030;52.362;9.206;2023-06-26T14:30:07;3.10;;;1.40;;
7969;SDS011;4030;52.362;9.206;2023-06-26T14:32:33;2.40;;;1.58;;
7969;SDS011;4030;52.362;9.206;2023-06-26T14:35:00;2.95;;;1.60;;
7969;SDS011;4030;52.362;9.206;2023-06-26T14:37:26;2.75;;;1.42;;
7969;SDS011;4030;52.362;9.206;2023-06-26T14:39:55;3.03;;;1.50;;
7969;SDS011;4030;52.362;9.206;2023-06-26T14:42:21;2.22;;;1.60;;
7969;SDS011;4030;52.362;9.206;2023-06-26T14:44:46;3.47;;;1.60;;
7969;SDS011;4030;52.362;9.206;2023-06-26T14:47:18;2.58;;;1.58;;
7969;SDS011;4030;52.362;9.206;2023-06-26T14:49:44;2.58;;;1.60;;
7969;SDS011;4030;52.362;9.206;2023-06-26T14:52:10;2.42;;;1.60;;
7969;SDS011;4030;52.362;9.206;2023-06-26T14:54:36;3.33;;;1.45;;
7969;SDS011;4030;52.362;9.206;2023-06-26T14:57:03;2.83;;;1.73;;
7969;SDS011;4030;52.362;9.206;2023-06-26T14:59:29;3.05;;;1.63;;
7969;SDS011;4030;52.362;9.206;2023-06-26T15:01:54;2.10;;;1.60;;
7969;SDS011;4030;52.362;9.206;2023-06-26T15:04:20;2.83;;;1.45;;
7969;SDS011;4030;52.362;9.206;2023-06-26T15:06:46;2.72;;;1.48;;
7969;SDS011;4030;52.362;9.206;2023-06-26T15:09:11;5.82;;;1.70;;
7969;SDS011;4030;52.362;9.206;2023-06-26T15:11:37;3.83;;;1.63;;
7969;SDS011;4030;52.362;9.206;2023-06-26T15:14:03;5.22;;;1.60;;
7969;SDS011;4030;52.362;9.206;2023-06-26T15:16:28;2.47;;;1.50;;
7969;SDS011;4030;52.362;9.206;2023-06-26T15:18:54;3.97;;;1.58;;
7969;SDS011;4030;52.362;9.206;2023-06-26T15:21:20;2.20;;;1.25;;
7969;SDS011;4030;52.362;9.206;2023-06-26T15:23:46;3.60;;;1.52;;
7969;SDS011;4030;52.362;9.206;2023-06-26T15:26:12;3.42;;;1.50;;
7969;SDS011;4030;52.362;9.206;2023-06-26T15:28:38;2.22;;;1.50;;
7969;SDS011;4030;52.362;9.206;2023-06-26T15:31:04;3.05;;;1.38;;
7969;SDS011;4030;52.362;9.206;2023-06-26T15:33:30;2.88;;;1.50;;